Time;durP1;ratioP1;P1;durP2;ratioP2;P2;SDS_P1;SDS_P2;PMS_P1;PMS_P2;Temp;Humidity;BMP_temperature;BMP_pressure;BME280_temperature;BME280_humidity;BME280_pressure;Samples;Min_cycle;Max_cycle;Signal;HPM_P1;HPM_P2
2023/09/19 00:01:32;;;;;;;7.60;2.42;;;;;;;15.08;100.00;100552.69;4974888;28;20046;-49
2023/09/19 00:03:58;;;;;;;5.97;1.75;;;;;;;14.98;100.00;100527.63;4975638;28;20039;-52
2023/09/19 00:06:26;;;;;;;5.45;1.63;;;;;;;15.36;100.00;100621.81;4975306;28;20489;-52
2023/09/19 00:08:52;;;;;;;5.32;2.15;;;;;;;15.05;100.00;100552.88;4975204;28;20049;-48
2023/09/19 00:11:17;;;;;;;8.00;1.98;;;;;;;15.40;100.00;100612.75;4969992;28;20032;-49
2023/09/19 00:13:43;;;;;;;6.80;1.85;;;;;;;15.37;100.00;100615.59;4955709;28;20042;-49
2023/09/19 00:16:14;;;;;;;5.78;1.92;;;;;;;15.19;100.00;100604.19;4955443;28;20029;-53
2023/09/19 00:18:39;;;;;;;;;;;;;;;15.36;100.00;100620.97;4954942;29;20046;-51
2023/09/19 00:21:05;;;;;;;4.80;1.57;;;;;;;15.33;100.00;100623.78;4954533;29;20158;-50
2023/09/19 00:23:31;;;;;;;8.05;1.65;;;;;;;14.87;100.00;100551.22;4955126;28;20371;-54
2023/09/19 00:26:00;;;;;;;6.47;1.75;;;;;;;15.09;100.00;100602.97;4957260;28;20039;-55
2023/09/19 00:28:26;;;;;;;7.20;2.17;;;;;;;15.20;100.00;100632.44;4980270;28;20050;-55
2023/09/19 00:30:51;;;;;;;5.80;1.58;;;;;;;14.73;100.00;100551.13;4954297;29;20039;-53
2023/09/19 00:33:19;;;;;;;9.57;2.53;;;;;;;14.93;100.00;100598.59;4955571;28;20082;-51
2023/09/19 00:35:52;;;;;;;7.78;1.83;;;;;;;14.96;100.00;100606.38;4960989;28;20039;-49
2023/09/19 00:38:24;;;;;;;6.53;2.17;;;;;;;15.05;100.00;100637.69;4959034;28;20031;-54
2023/09/19 00:40:51;;;;;;;4.57;1.67;;;;;;;15.12;100.00;100634.63;4970600;28;20042;-50
2023/09/19 00:43:16;;;;;;;5.72;2.13;;;;;;;14.71;100.00;100547.72;4973904;28;20041;-53
2023/09/19 00:45:48;;;;;;;6.22;2.08;;;;;;;14.66;100.00;100550.59;4969916;28;20038;-52
2023/09/19 00:48:13;;;;;;;6.03;2.03;;;;;;;14.45;100.00;100512.84;4970391;28;20105;-52
2023/09/19 00:50:43;;;;;;;7.10;1.80;;;;;;;15.10;100.00;100625.03;4974343;28;20054;-48
2023/09/19 00:53:09;;;;;;;8.93;1.42;;;;;;;15.07;100.00;100610.16;4968017;28;20471;-53
2023/09/19 00:55:37;;;;;;;7.43;2.15;;;;;;;14.96;100.00;100622.28;4960819;28;20529;-53
2023/09/19 00:58:03;;;;;;;7.70;2.55;;;;;;;14.97;100.00;100613.41;4968188;28;20083;-51
2023/09/19 01:00:28;;;;;;;8.73;3.05;;;;;;;14.57;100.00;100549.28;4952598;28;20063;-52
2023/09/19 01:02:54;;;;;;;10.32;2.10;;;;;;;14.59;100.00;100557.16;4955809;28;20039;-50
2023/09/19 01:05:19;;;;;;;9.73;2.38;;;;;;;14.85;100.00;100606.97;4953947;28;20035;-53
2023/09/19 01:07:45;;;;;;;7.05;2.10;;;;;;;14.99;100.00;100624.78;4953408;29;20031;-53
2023/09/19 01:10:16;;;;;;;8.45;2.47;;;;;;;14.92;100.00;100624.22;4957458;28;20107;-51
2023/09/19 01:12:51;;;;;;;10.73;2.83;;;;;;;14.93;100.00;100630.41;4960987;28;20046;-53
2023/09/19 01:15:27;;;;;;;9.60;2.63;;;;;;;14.95;100.00;100639.97;4964790;28;20036;-53
2023/09/19 01:18:06;;;;;;;9.38;2.83;;;;;;;14.38;100.00;100539.75;4960599;28;20043;-54
2023/09/19 01:20:50;;;;;;;6.63;2.80;;;;;;;14.89;100.00;100627.06;4961986;28;20034;-51
2023/09/19 01:23:21;;;;;;;10.63;2.72;;;;;;;14.41;100.00;100552.84;4970241;28;20043;-54
2023/09/19 01:26:06;;;;;;;6.22;2.22;;;;;;;14.54;100.00;100572.44;4967637;28;20035;-53
2023/09/19 01:28:39;;;;;;;10.15;2.70;;;;;;;14.28;100.00;100528.75;4953657;28;20039;-50
2023/09/19 01:31:09;;;;;;;10.82;2.85;;;;;;;14.79;100.00;100604.66;4952600;29;20039;-52
2023/09/19 01:33:57;;;;;;;8.35;2.67;;;;;;;14.96;100.00;100630.22;4966776;28;20078;-53
2023/09/19 01:36:23;;;;;;;7.15;2.60;;;;;;;14.46;100.00;100540.19;4954718;28;20491;-52
2023/09/19 01:38:50;;;;;;;9.27;2.92;;;;;;;15.03;100.00;100624.50;4962466;28;20043;-53
2023/09/19 01:41:19;;;;;;;12.95;2.80;;;;;;;14.77;100.00;100574.69;4955537;28;20039;-49
2023/09/19 01:43:45;;;;;;;9.82;2.90;;;;;;;15.13;100.00;100651.38;4954518;28;20047;-55
2023/09/19 01:46:30;;;;;;;11.60;2.67;;;;;;;14.65;100.00;100575.38;4958090;28;20039;-54
2023/09/19 01:49:09;;;;;;;9.38;3.00;;;;;;;15.07;100.00;100657.00;4966892;28;20565;-50
2023/09/19 01:51:43;;;;;;;9.43;2.97;;;;;;;14.60;100.00;100567.66;4959699;28;20041;-53
2023/09/19 01:54:12;;;;;;;8.70;2.45;;;;;;;14.96;100.00;100639.06;4956071;28;20479;-53
2023/09/19 01:56:47;;;;;;;12.25;3.20;;;;;;;14.50;100.00;100545.28;4965492;28;20126;-51
2023/09/19 01:59:27;;;;;;;10.40;2.58;;;;;;;15.02;100.00;100644.03;4952542;28;20057;-53
2023/09/19 02:01:53;;;;;;;12.93;3.22;;;;;;;14.62;100.00;100586.97;4953410;28;20078;-54
2023/09/19 02:04:18;;;;;;;13.73;3.05;;;;;;;14.91;100.00;100637.59;4965210;28;20039;-51
2023/09/19 02:06:47;;;;;;;15.88;3.35;;;;;;;14.46;100.00;100559.59;4958843;28;20034;-53
2023/09/19 02:09:13;;;;;;;15.15;2.53;;;;;;;14.36;100.00;100560.19;4959854;28;20044;-49
2023/09/19 02:11:38;;;;;;;12.73;2.92;;;;;;;14.38;100.00;100563.59;4962813;28;20061;-53
2023/09/19 02:14:04;;;;;;;9.27;2.72;;;;;;;14.72;100.00;100634.19;4959651;28;20054;-54
2023/09/19 02:16:30;;;;;;;8.10;2.30;;;;;;;14.69;100.00;100642.28;4944699;28;20034;-50
2023/09/19 02:18:55;;;;;;;10.85;2.55;;;;;;;14.67;100.00;100637.09;4959514;28;20406;-51
2023/09/19 02:21:21;;;;;;;8.30;2.42;;;;;;;14.65;100.00;100644.25;4969748;28;20078;-52
2023/09/19 02:23:51;;;;;;;9.25;2.10;;;;;;;14.46;100.00;100632.88;4978782;28;20070;-52
2023/09/19 02:26:18;;;;;;;4.57;2.05;;;;;;;14.57;100.00;100651.72;4959564;28;20047;-55
2023/09/19 02:28:45;;;;;;;4.68;2.00;;;;;;;14.50;100.00;100645.06;4959491;28;20036;-52
2023/09/19 02:31:11;;;;;;;9.30;2.55;;;;;;;14.54;100.00;100651.88;4967995;28;20439;-54
2023/09/19 02:33:37;;;;;;;8.85;2.10;;;;;;;14.16;100.00;100581.47;4971933;28;20122;-52
2023/09/19 02:36:05;;;;;;;9.27;2.33;;;;;;;14.48;100.00;100641.59;4959562;28;20039;-54
2023/09/19 02:38:30;;;;;;;9.18;2.25;;;;;;;14.29;100.00;100591.38;4959133;28;20031;-52
2023/09/19 02:40:56;;;;;;;9.40;2.30;;;;;;;14.71;100.00;100665.09;4966840;28;20085;-54
2023/09/19 02:43:22;;;;;;;12.02;2.85;;;;;;;14.74;100.00;100661.47;4979405;28;20037;-51
2023/09/19 02:45:53;;;;;;;8.48;1.83;;;;;;;14.79;100.00;100660.28;4978135;28;20390;-54
2023/09/19 02:48:18;;;;;;;11.15;2.60;;;;;;;14.82;100.00;100636.28;4971563;28;20105;-55
2023/09/19 02:50:44;;;;;;;7.78;1.95;;;;;;;14.40;100.00;100556.41;4959680;28;20039;-56
2023/09/19 02:53:12;;;;;;;5.90;1.95;;;;;;;14.96;100.00;100636.41;4971641;28;20034;-54
2023/09/19 02:55:39;;;;;;;5.35;2.05;;;;;;;14.54;100.00;100564.47;4978076;28;20030;-52
2023/09/19 02:58:07;;;;;;;8.30;2.05;;;;;;;14.99;100.00;100633.59;4968234;28;20148;-51
2023/09/19 03:00:34;;;;;;;9.40;2.28;;;;;;;14.97;100.00;100621.34;4969521;28;20102;-54
2023/09/19 03:03:00;;;;;;;8.98;2.50;;;;;;;15.05;100.00;100638.56;4971616;28;20031;-54
2023/09/19 03:05:26;;;;;;;8.00;2.33;;;;;;;15.09;100.00;100645.38;4962779;28;20395;-53
2023/09/19 03:07:51;;;;;;;7.50;2.25;;;;;;;15.02;100.00;100635.22;4965917;28;20110;-55
2023/09/19 03:10:20;;;;;;;9.63;2.40;;;;;;;14.84;100.00;100594.66;4976029;28;20067;-54
2023/09/19 03:12:47;;;;;;;10.50;2.00;;;;;;;15.15;100.00;100660.09;4972850;28;20067;-48
2023/09/19 03:15:12;;;;;;;5.60;2.15;;;;;;;14.88;100.00;100588.25;4958197;28;20082;-55
2023/09/19 03:17:43;;;;;;;9.60;2.03;;;;;;;14.95;100.00;100578.16;4963130;28;20038;-50
2023/09/19 03:20:09;;;;;;;6.60;1.88;;;;;;;14.96;100.00;100580.75;4969294;28;20546;-54
2023/09/19 03:22:35;;;;;;;6.72;2.00;;;;;;;15.44;100.00;100634.66;4976422;28;20060;-50
2023/09/19 03:25:00;;;;;;;7.13;1.90;;;;;;;15.34;100.00;100623.72;4975683;28;20117;-55
2023/09/19 03:27:26;;;;;;;7.72;1.90;;;;;;;15.48;100.00;100649.50;4974809;28;20114;-50
2023/09/19 03:29:53;;;;;;;9.15;2.13;;;;;;;15.41;100.00;100630.38;4968351;28;20387;-50
2023/09/19 03:32:18;;;;;;;8.88;2.35;;;;;;;15.03;100.00;100550.28;4955781;28;20035;-52
2023/09/19 03:34:44;;;;;;;7.45;2.38;;;;;;;15.14;100.00;100555.88;4957163;28;20069;-53
2023/09/19 03:37:09;;;;;;;9.35;2.30;;;;;;;15.50;100.00;100629.88;4957800;28;20584;-53
2023/09/19 03:39:35;;;;;;;10.93;1.98;;;;;;;15.57;100.00;100631.28;4969488;28;20043;-53
2023/09/19 03:42:02;;;;;;;5.95;1.92;;;;;;;15.62;100.00;100649.56;4964258;28;20046;-54
2023/09/19 03:44:28;;;;;;;7.05;1.65;;;;;;;15.09;100.00;100565.84;4956723;28;20074;-55
2023/09/19 03:46:55;;;;;;;8.63;1.85;;;;;;;15.29;100.00;100609.84;4956295;29;20039;-55
2023/09/19 03:49:20;;;;;;;8.77;2.33;;;;;;;14.90;100.00;100562.53;4955243;28;20143;-52
2023/09/19 03:51:46;;;;;;;9.35;2.30;;;;;;;15.21;100.00;100636.78;4955893;28;20122;-53
2023/09/19 03:54:11;;;;;;;6.97;2.50;;;;;;;15.26;100.00;100662.19;4956076;28;20825;-50
2023/09/19 03:56:37;;;;;;;7.75;2.00;;;;;;;15.15;100.00;100647.72;4973411;28;20038;-54
2023/09/19 03:59:03;;;;;;;8.57;2.30;;;;;;;15.23;100.00;100665.00;4957822;28;20106;-55
2023/09/19 04:01:30;;;;;;;10.30;2.35;;;;;;;14.85;100.00;100580.47;4972570;28;20054;-51
2023/09/19 04:03:56;;;;;;;7.60;2.67;;;;;;;15.27;100.00;100656.78;4961299;28;20126;-54
2023/09/19 04:06:22;;;;;;;6.25;2.03;;;;;;;14.82;100.00;100587.72;4964002;28;20046;-52
2023/09/19 04:08:48;;;;;;;9.52;2.67;;;;;;;15.00;100.00;100640.56;4965904;28;20058;-52
2023/09/19 04:11:13;;;;;;;4.15;1.75;;;;;;;14.76;100.00;100601.28;4958953;28;20046;-51
2023/09/19 04:13:39;;;;;;;7.60;1.98;;;;;;;14.79;100.00;100607.28;4958814;28;20043;-50
2023/09/19 04:16:04;;;;;;;6.30;1.67;;;;;;;14.84;100.00;100615.84;4975099;28;20039;-52
2023/09/19 04:18:32;;;;;;;7.28;1.98;;;;;;;14.75;100.00;100602.22;4971298;28;20065;-51
2023/09/19 04:20:58;;;;;;;7.88;1.80;;;;;;;14.91;100.00;100640.25;4971050;28;20031;-52
2023/09/19 04:23:23;;;;;;;6.57;1.83;;;;;;;15.13;100.00;100693.81;4963213;28;20038;-47
2023/09/19 04:25:48;;;;;;;7.30;1.98;;;;;;;15.10;100.00;100681.56;4974656;28;20045;-50
2023/09/19 04:28:15;;;;;;;4.28;1.60;;;;;;;15.07;100.00;100696.78;4966110;28;20130;-50
2023/09/19 04:30:40;;;;;;;4.45;1.58;;;;;;;14.88;100.00;100661.59;4964467;28;20486;-51
2023/09/19 04:33:06;;;;;;;3.83;1.65;;;;;;;14.75;100.00;100661.38;4973185;28;20121;-54
2023/09/19 04:35:32;;;;;;;8.85;1.90;;;;;;;14.85;100.00;100673.22;4971085;28;20451;-54
2023/09/19 04:37:57;;;;;;;5.57;1.80;;;;;;;14.98;100.00;100694.63;4955008;28;20035;-52
2023/09/19 04:40:24;;;;;;;5.97;2.03;;;;;;;14.59;100.00;100647.22;4955290;28;20035;-53
2023/09/19 04:42:56;;;;;;;7.30;1.90;;;;;;;14.93;100.00;100675.44;4971450;28;20030;-52
2023/09/19 04:45:26;;;;;;;10.82;1.90;;;;;;;14.81;100.00;100671.66;4973442;28;20497;-55
2023/09/19 04:47:51;;;;;;;6.65;1.98;;;;;;;14.92;100.00;100693.13;4969307;28;20467;-51
2023/09/19 04:50:17;;;;;;;5.97;1.75;;;;;;;14.98;100.00;100699.91;4960769;28;20114;-50
2023/09/19 04:52:44;;;;;;;4.43;1.45;;;;;;;15.00;100.00;100703.38;4962641;28;20085;-49
2023/09/19 04:55:16;;;;;;;5.20;1.55;;;;;;;14.83;100.00;100676.84;4956969;28;20486;-52
2023/09/19 04:57:45;;;;;;;4.25;1.75;;;;;;;14.64;100.00;100643.41;4960408;28;20059;-55
2023/09/19 05:00:16;;;;;;;5.75;1.80;;;;;;;14.65;100.00;100649.56;4969018;28;20039;-49
2023/09/19 05:02:42;;;;;;;8.57;2.30;;;;;;;14.84;100.00;100683.88;4957880;28;20030;-52
2023/09/19 05:05:10;;;;;;;8.13;1.60;;;;;;;14.42;100.00;100629.53;4969809;28;20151;-54
2023/09/19 05:07:35;;;;;;;9.32;2.10;;;;;;;14.84;100.00;100711.25;4953809;28;20031;-52
2023/09/19 05:10:01;;;;;;;6.57;1.60;;;;;;;14.53;100.00;100636.94;4954429;28;20039;-50
2023/09/19 05:12:27;;;;;;;5.97;1.98;;;;;;;14.97;100.00;100696.41;4964438;28;20042;-52
2023/09/19 05:14:52;;;;;;;8.30;2.78;;;;;;;15.03;100.00;100703.19;4958692;28;20121;-53
2023/09/19 05:17:18;;;;;;;6.03;2.08;;;;;;;14.89;100.00;100674.75;4955493;28;20039;-53
2023/09/19 05:19:43;;;;;;;6.93;2.28;;;;;;;14.69;100.00;100631.69;4973940;28;20459;-50
2023/09/19 05:22:08;;;;;;;8.30;1.90;;;;;;;14.82;100.00;100660.13;4968378;28;20043;-51
2023/09/19 05:24:34;;;;;;;6.65;2.15;;;;;;;14.87;100.00;100665.19;4953758;28;20587;-50
2023/09/19 05:26:59;;;;;;;9.18;2.20;;;;;;;14.82;100.00;100636.28;4954849;28;20447;-52
2023/09/19 05:29:24;;;;;;;5.63;1.95;;;;;;;15.16;100.00;100693.66;4958870;28;20074;-51
2023/09/19 05:31:50;;;;;;;7.93;2.30;;;;;;;15.18;100.00;100697.06;4954780;28;20051;-50
2023/09/19 05:34:16;;;;;;;7.35;2.22;;;;;;;14.74;100.00;100622.56;4956816;28;20413;-48
2023/09/19 05:36:41;;;;;;;8.63;2.85;;;;;;;14.98;100.00;100663.66;4960303;28;20039;-53
2023/09/19 05:39:09;;;;;;;7.53;2.72;;;;;;;15.11;100.00;100688.59;4965642;28;20053;-51
2023/09/19 05:41:36;;;;;;;7.90;2.50;;;;;;;15.07;100.00;100692.34;4971463;28;20035;-55
2023/09/19 05:44:02;;;;;;;12.48;2.88;;;;;;;15.03;100.00;100700.56;4972669;28;20065;-52
2023/09/19 05:46:29;;;;;;;10.02;2.42;;;;;;;14.98;100.00;100698.13;4968245;28;20031;-51
2023/09/19 05:48:56;;;;;;;11.00;2.80;;;;;;;14.54;100.00;100620.09;4954578;28;20097;-50
2023/09/19 05:51:22;;;;;;;10.55;2.33;;;;;;;14.60;100.00;100639.19;4953366;29;20105;-54
2023/09/19 05:53:48;;;;;;;11.63;3.03;;;;;;;14.92;100.00;100701.09;4954495;28;20463;-50
2023/09/19 05:56:14;;;;;;;9.98;2.97;;;;;;;14.86;100.00;100687.31;4955782;28;20035;-52
2023/09/19 05:58:42;;;;;;;16.20;3.60;;;;;;;14.94;100.00;100709.84;4968301;28;20153;-53
2023/09/19 06:01:09;;;;;;;9.80;2.63;;;;;;;14.93;100.00;100701.97;4982022;28;20031;-53
2023/09/19 06:03:35;;;;;;;11.57;2.65;;;;;;;14.81;100.00;100681.38;4964308;28;20402;-52
2023/09/19 06:06:04;;;;;;;9.98;2.80;;;;;;;14.44;100.00;100618.88;4962168;28;20043;-51
2023/09/19 06:08:31;;;;;;;10.68;3.47;;;;;;;14.93;100.00;100697.53;4955404;28;20042;-49
2023/09/19 06:10:56;;;;;;;14.90;3.30;;;;;;;14.59;100.00;100633.97;4953322;28;20070;-52
2023/09/19 06:13:22;;;;;;;9.15;2.80;;;;;;;14.58;100.00;100626.97;4952300;28;20365;-56
2023/09/19 06:15:47;;;;;;;11.15;3.08;;;;;;;14.99;100.00;100694.56;4956099;28;20045;-51
2023/09/19 06:18:19;;;;;;;13.80;3.20;;;;;;;15.06;100.00;100697.75;4966332;28;20035;-48
2023/09/19 06:20:46;;;;;;;11.52;2.85;;;;;;;14.63;100.00;100638.16;4955728;28;20122;-50
2023/09/19 06:23:12;;;;;;;11.10;3.05;;;;;;;14.69;100.00;100627.25;4954270;28;20086;-52
2023/09/19 06:25:37;;;;;;;9.75;3.15;;;;;;;14.72;100.00;100631.53;4952914;28;20499;-50
2023/09/19 06:28:05;;;;;;;11.60;2.80;;;;;;;15.08;100.00;100691.41;4954356;28;20407;-53
2023/09/19 06:30:30;;;;;;;11.70;2.70;;;;;;;14.76;100.00;100633.09;4952330;28;20093;-51
2023/09/19 06:33:00;;;;;;;8.95;2.80;;;;;;;14.84;100.00;100649.44;4952003;28;20039;-48
2023/09/19 06:35:26;;;;;;;10.48;2.63;;;;;;;15.18;100.00;100713.84;4967583;28;20134;-48
2023/09/19 06:37:52;;;;;;;16.73;3.60;;;;;;;14.80;100.00;100642.59;4955185;28;20371;-49
2023/09/19 06:40:19;;;;;;;13.43;2.97;;;;;;;15.16;100.00;100699.81;4970973;28;20445;-52
2023/09/19 06:42:50;;;;;;;10.25;3.50;;;;;;;14.94;100.00;100662.13;4965510;28;20039;-53
2023/09/19 06:45:18;;;;;;;14.75;3.28;;;;;;;14.87;100.00;100638.66;4953277;29;20046;-51
2023/09/19 06:47:50;;;;;;;11.07;2.75;;;;;;;14.77;100.00;100618.91;4952833;28;20043;-48
2023/09/19 06:50:22;;;;;;;9.77;3.33;;;;;;;15.20;100.00;100690.75;4967736;28;20111;-51
2023/09/19 06:52:49;;;;;;;8.52;3.08;;;;;;;15.37;100.00;100720.81;4953035;28;20043;-48
2023/09/19 06:55:16;;;;;;;14.15;3.83;;;;;;;15.18;100.00;100671.41;4955189;28;20411;-49
2023/09/19 06:57:44;;;;;;;12.57;2.90;;;;;;;15.04;100.00;100634.19;4954895;28;20517;-47
2023/09/19 07:00:22;;;;;;;11.73;3.25;;;;;;;15.46;100.00;100707.06;4973415;28;20197;-47
2023/09/19 07:03:00;;;;;;;11.15;3.25;;;;;;;15.57;100.00;100717.97;4959441;28;20038;-49
2023/09/19 07:05:31;;;;;;;9.38;2.83;;;;;;;15.27;100.00;100648.84;4965456;28;20116;-49
2023/09/19 07:07:58;;;;;;;9.73;2.95;;;;;;;15.71;100.00;100718.06;4959920;28;20499;-53
2023/09/19 07:10:28;;;;;;;9.20;3.20;;;;;;;15.70;100.00;100709.22;4967561;28;20046;-52
2023/09/19 07:13:03;;;;;;;10.68;2.95;;;;;;;15.84;100.00;100721.75;4954491;28;20036;-50
2023/09/19 07:15:30;;;;;;;7.43;2.42;;;;;;;15.87;100.00;100729.53;4957058;28;20042;-48
2023/09/19 07:17:56;;;;;;;11.85;3.00;;;;;;;15.85;100.00;100709.34;4953897;28;20046;-50
2023/09/19 07:20:25;;;;;;;10.20;3.30;;;;;;;15.99;100.00;100728.88;4970580;28;20027;-50
2023/09/19 07:22:50;;;;;;;9.40;2.95;;;;;;;16.01;100.00;100723.44;4958241;28;20493;-52
2023/09/19 07:25:16;;;;;;;12.57;3.20;;;;;;;15.72;100.00;100664.06;4959906;28;21652;-50
2023/09/19 07:27:42;;;;;;;10.48;3.17;;;;;;;16.13;100.00;100725.41;4954689;28;20039;-52
2023/09/19 07:30:08;;;;;;;9.95;3.63;;;;;;;16.14;100.00;100712.03;4960036;28;20051;-49
2023/09/19 07:32:36;;;;;;;11.27;3.28;;;;;;;16.30;100.00;100715.53;4954642;28;20142;-50
2023/09/19 07:35:02;;;;;;;10.20;3.40;;;;;;;16.18;100.00;100700.31;4964918;28;20116;-50
2023/09/19 07:37:29;;;;;;;12.82;3.45;;;;;;;16.16;100.00;100691.59;4967669;28;20051;-51
2023/09/19 07:39:54;;;;;;;12.02;4.28;;;;;;;15.97;100.00;100667.00;4968293;28;20468;-50
2023/09/19 07:42:19;;;;;;;7.28;2.70;;;;;;;16.56;100.00;100735.31;4954475;28;20027;-50
2023/09/19 07:44:47;;;;;;;9.27;3.15;;;;;;;16.68;100.00;100741.69;4965808;28;20127;-48
2023/09/19 07:47:14;;;;;;;16.08;3.47;;;;;;;16.51;100.00;100720.53;4973708;28;20047;-48
2023/09/19 07:49:39;;;;;;;9.48;2.65;;;;;;;16.30;100.00;100667.72;4972893;28;20042;-50
2023/09/19 07:52:05;;;;;;;13.75;3.72;;;;;;;16.40;100.00;100684.00;4957160;28;20043;-49
2023/09/19 07:54:35;;;;;;;8.40;3.22;;;;;;;16.76;100.00;100736.78;4973934;28;20050;-54
2023/09/19 07:57:01;;;;;;;12.50;3.25;;;;;;;16.47;100.00;100671.19;4973970;28;20047;-48
2023/09/19 07:59:26;;;;;;;11.30;3.20;;;;;;;16.58;100.00;100658.16;4973778;28;20058;-53
2023/09/19 08:01:52;;;;;;;11.07;3.28;;;;;;;16.95;100.00;100709.97;4973939;28;20438;-51
2023/09/19 08:04:19;;;;;;;12.25;3.42;;;;;;;17.07;100.00;100731.34;4973250;28;20082;-50
2023/09/19 08:06:44;;;;;;;12.27;3.33;;;;;;;16.84;100.00;100655.63;4971435;28;20481;-56
2023/09/19 08:09:11;;;;;;;10.05;3.50;;;;;;;17.37;100.00;100725.94;4972944;28;20126;-49
2023/09/19 08:11:36;;;;;;;16.55;3.75;;;;;;;17.31;100.00;100665.97;4971824;28;20038;-50
2023/09/19 08:14:02;;;;;;;13.63;3.90;;;;;;;17.69;100.00;100684.88;4972791;28;20364;-50
2023/09/19 08:16:27;;;;;;;10.32;3.42;;;;;;;18.22;100.00;100728.47;4971152;28;20520;-49
2023/09/19 08:18:54;;;;;;;8.38;2.90;;;;;;;18.37;100.00;100725.66;4972285;28;20046;-53
2023/09/19 08:21:20;;;;;;;15.65;3.88;;;;;;;18.15;100.00;100677.44;4972967;28;20122;-54
2023/09/19 08:23:46;;;;;;;12.73;3.53;;;;;;;18.52;100.00;100719.34;4972356;28;20459;-51
2023/09/19 08:26:11;;;;;;;13.98;2.88;;;;;;;18.54;100.00;100666.78;4972939;28;20039;-47
2023/09/19 08:28:37;;;;;;;7.32;3.08;;;;;;;18.90;100.00;100715.88;4972657;28;20130;-51
2023/09/19 08:31:05;;;;;;;9.88;3.20;;;;;;;18.78;100.00;100738.06;4972860;28;20073;-53
2023/09/19 08:33:33;;;;;;;10.02;3.78;;;;;;;18.32;100.00;100679.81;4972698;28;20508;-50
2023/09/19 08:35:58;;;;;;;11.10;3.33;;;;;;;18.75;100.00;100725.78;4971381;28;20035;-47
2023/09/19 08:38:24;;;;;;;10.27;3.45;;;;;;;18.49;100.00;100690.22;4971795;28;20528;-53
2023/09/19 08:40:49;;;;;;;10.35;3.42;;;;;;;18.26;100.00;100692.69;4972455;28;20036;-49
2023/09/19 08:43:14;;;;;;;9.43;3.30;;;;;;;17.84;100.00;100667.06;4972616;28;20038;-49
2023/09/19 08:45:40;;;;;;;12.40;3.47;;;;;;;17.76;100.00;100735.91;4972506;28;20038;-50
2023/09/19 08:48:06;;;;;;;12.85;3.58;;;;;;;17.61;100.00;100727.09;4971098;28;20031;-49
2023/09/19 08:50:31;;;;;;;8.02;3.05;;;;;;;17.61;100.00;100728.91;4972355;28;20037;-48
2023/09/19 08:53:01;;;;;;;12.65;3.30;;;;;;;17.20;100.00;100670.25;4970942;28;20109;-50
2023/09/19 08:55:27;;;;;;;12.25;3.75;;;;;;;17.47;100.00;100724.41;4972420;28;20042;-52
2023/09/19 08:58:00;;;;;;;11.68;3.10;;;;;;;17.37;100.00;100721.47;4970610;28;20038;-48
2023/09/19 09:00:27;;;;;;;11.50;3.42;;;;;;;17.19;100.00;100709.28;4972276;28;20168;-49
2023/09/19 09:02:56;;;;;;;12.13;3.10;;;;;;;17.32;100.00;100722.72;4970515;28;20489;-48
2023/09/19 09:05:23;;;;;;;14.80;3.38;;;;;;;17.18;100.00;100726.22;4970876;28;20035;-47
2023/09/19 09:07:52;;;;;;;12.50;3.55;;;;;;;17.13;100.00;100690.22;4971932;28;20031;-49
2023/09/19 09:10:22;;;;;;;10.93;3.65;;;;;;;17.17;100.00;100647.38;4971853;28;20031;-49
2023/09/19 09:12:51;;;;;;;12.77;3.22;;;;;;;17.65;100.00;100654.09;4971694;28;20042;-52
2023/09/19 09:15:19;;;;;;;11.85;3.63;;;;;;;18.83;100.00;100727.91;4970585;28;20222;-51
2023/09/19 09:17:48;;;;;;;6.63;3.03;;;;;;;19.18;100.00;100672.97;4971777;28;20117;-49
2023/09/19 09:20:13;;;;;;;11.85;3.42;;;;;;;19.30;100.00;100661.44;4971232;28;20033;-49
2023/09/19 09:22:44;;;;;;;13.43;3.60;;;;;;;19.65;100.00;100729.22;4971566;28;20475;-50
2023/09/19 09:25:09;;;;;;;11.10;3.05;;;;;;;19.44;100.00;100733.41;4971512;28;20035;-47
2023/09/19 09:27:35;;;;;;;12.25;2.88;;;;;;;19.00;100.00;100669.78;4971117;28;20061;-53
2023/09/19 09:30:00;;;;;;;11.57;3.17;;;;;;;18.70;100.00;100653.25;4970631;28;20043;-48
2023/09/19 09:32:31;;;;;;;9.30;3.10;;;;;;;19.03;100.00;100735.44;4971848;28;20126;-50
2023/09/19 09:34:57;;;;;;;;;;;;;;;19.35;100.00;100730.53;4971107;28;20039;-48
2023/09/19 09:37:26;;;;;;;14.35;3.20;;;;;;;19.55;100.00;100664.13;4970156;28;19997;-55
2023/09/19 09:39:56;;;;;;;8.38;3.15;;;;;;;20.06;100.00;100720.03;4970615;28;20031;-52
2023/09/19 09:42:35;;;;;;;8.27;2.83;;;;;;;20.27;100.00;100707.78;4971573;28;20072;-50
2023/09/19 09:45:12;;;;;;;12.55;2.28;;;;;;;19.88;100.00;100742.72;4971384;28;20034;-55
2023/09/19 09:47:49;;;;;;;11.40;2.83;;;;;;;19.05;100.00;100658.81;4971582;28;20103;-49
2023/09/19 09:50:28;;;;;;;10.60;3.10;;;;;;;19.27;100.00;100709.69;4971482;28;20131;-47
2023/09/19 09:53:00;;;;;;;12.65;2.75;;;;;;;19.25;100.00;100716.09;4970242;28;20376;-53
2023/09/19 09:55:26;;;;;;;9.68;2.42;;;;;;;19.27;100.00;100699.03;4971314;28;20067;-50
2023/09/19 09:58:18;;;;;;;12.52;2.88;;;;;;;19.50;100.00;100700.94;4971066;28;20168;-49
2023/09/19 10:00:57;;;;;;;9.73;3.17;;;;;;;19.43;100.00;100696.16;4969778;28;20089;-49
2023/09/19 10:03:31;;;;;;;8.55;2.55;;;;;;;19.08;100.00;100631.91;4969312;28;20089;-53
2023/09/19 10:05:58;;;;;;;10.85;2.80;;;;;;;19.34;100.00;100628.25;4971247;28;20069;-53
2023/09/19 10:08:23;;;;;;;8.65;2.65;;;;;;;19.43;100.00;100621.44;4971169;28;20125;-53
2023/09/19 10:13:21;;;;;;;10.23;2.55;;;;;;;20.07;100.00;100695.88;4970991;28;20058;-53
2023/09/19 10:15:50;;;;;;;9.85;2.83;;;;;;;19.85;100.00;100670.84;4971093;28;20042;-57
2023/09/19 10:18:24;;;;;;;9.50;2.20;;;;;;;19.87;100.00;100652.88;4970880;28;20035;-49
2023/09/19 10:20:50;;;;;;;7.72;2.17;;;;;;;19.71;100.00;100610.41;4971036;28;20942;-47
2023/09/19 10:23:22;;;;;;;6.28;1.85;;;;;;;20.06;100.00;100695.97;4970892;28;20338;-54
2023/09/19 10:25:48;;;;;;;9.75;2.58;;;;;;;20.11;100.00;100667.94;4970772;28;20121;-49
2023/09/19 10:28:15;;;;;;;6.93;2.30;;;;;;;19.91;100.00;100638.31;4970948;28;20081;-47
2023/09/19 10:30:48;;;;;;;10.88;2.60;;;;;;;20.06;100.00;100655.88;4970855;28;20137;-50
2023/09/19 10:33:16;;;;;;;5.00;2.13;;;;;;;20.02;100.00;100676.63;4974164;28;20042;-50
2023/09/19 10:35:44;;;;;;;8.48;2.50;;;;;;;20.65;100.00;100654.09;4974946;28;20078;-47
2023/09/19 10:38:11;;;;;;;6.65;1.92;;;;;;;20.94;100.00;100655.34;4974937;28;20045;-48
2023/09/19 10:40:40;;;;;;;7.55;2.25;;;;;;;20.69;100.00;100688.47;4973778;28;20043;-53
2023/09/19 10:43:06;;;;;;;8.13;2.33;;;;;;;19.99;100.00;100622.59;4974733;28;20037;-49
2023/09/19 10:45:38;;;;;;;8.57;2.50;;;;;;;19.94;100.00;100644.28;4973706;28;20394;-53
2023/09/19 10:48:04;;;;;;;6.50;2.17;;;;;;;19.54;100.00;100626.84;4974621;28;20085;-51
2023/09/19 10:50:34;;;;;;;10.98;2.47;;;;;;;19.76;100.00;100653.66;4974460;28;20040;-47
2023/09/19 10:53:04;;;;;;;6.78;2.65;;;;;;;19.71;100.00;100602.41;4972913;28;20458;-53
2023/09/19 10:55:31;;;;;;;8.02;2.28;;;;;;;20.02;100.00;100609.00;4972928;28;20030;-50
2023/09/19 10:58:30;;;;;;;5.90;1.75;;;;;;;20.87;100.00;100646.09;4972319;28;20541;-52
2023/09/19 11:00:56;;;;;;;7.95;2.13;;;;;;;21.17;100.00;100645.53;4971945;28;20055;-56
2023/09/19 11:03:23;;;;;;;8.73;2.60;;;;;;;20.63;100.00;100615.91;4973812;28;20038;-51
2023/09/19 11:06:05;;;;;;;11.75;2.38;;;;;;;20.61;100.00;100648.09;4974144;28;20065;-48
2023/09/19 11:08:51;;;;;;;8.07;2.22;;;;;;;19.91;100.00;100619.63;4973945;28;20383;-52
2023/09/19 11:11:38;;;;;;;4.28;1.65;;;;;;;20.03;100.00;100635.59;4974620;28;20347;-52
2023/09/19 11:14:28;;;;;;;6.40;2.08;;;;;;;20.09;100.00;100635.16;4975567;28;20041;-53
2023/09/19 11:17:07;;;;;;;6.47;2.28;;;;;;;20.46;100.00;100641.25;4974268;28;20034;-53
2023/09/19 11:20:15;;;;;;;5.80;1.83;;;;;;;20.41;100.00;100646.09;4975355;28;20034;-53
2023/09/19 11:22:48;;;;;;;4.28;1.40;;;;;;;20.26;100.00;100623.22;4965540;28;20043;-53